createdAt,value
2022-11-28T00:02:27.833Z,3.60
2022-11-28T00:05:13.936Z,3.60
2022-11-28T00:07:59.578Z,3.60
2022-11-28T00:10:45.870Z,3.60
2022-11-28T00:13:31.705Z,3.60
2022-11-28T00:16:21.745Z,3.60
2022-11-28T00:19:07.736Z,3.60
2022-11-28T00:21:53.612Z,3.60
2022-11-28T00:24:40.471Z,3.50
2022-11-28T00:27:26.409Z,3.60
2022-11-28T00:30:12.708Z,3.50
2022-11-28T00:32:58.463Z,3.40
2022-11-28T00:35:44.692Z,3.40
2022-11-28T00:38:31.066Z,3.40
2022-11-28T00:41:18.348Z,3.50
2022-11-28T00:44:04.315Z,3.50
2022-11-28T00:46:50.109Z,3.50
2022-11-28T00:49:36.184Z,3.50
2022-11-28T00:52:21.870Z,3.60
2022-11-28T00:55:09.073Z,3.60
2022-11-28T00:57:55.332Z,3.60
2022-11-28T01:00:41.580Z,3.70
2022-11-28T01:03:27.908Z,3.60
2022-11-28T01:06:20.399Z,3.70
2022-11-28T01:09:10.935Z,3.60
2022-11-28T01:11:56.830Z,3.60
2022-11-28T01:14:43.197Z,3.50
2022-11-28T01:17:29.271Z,3.50
2022-11-28T01:20:15.267Z,3.50
2022-11-28T01:23:01.357Z,3.50
2022-11-28T01:25:47.393Z,3.40
2022-11-28T01:28:34.641Z,3.40
2022-11-28T01:31:24.903Z,3.40
2022-11-28T01:34:11.172Z,3.40
2022-11-28T01:36:57.046Z,3.40
2022-11-28T01:39:43.192Z,3.40
2022-11-28T01:42:29.183Z,3.40
2022-11-28T01:45:25.929Z,3.20
2022-11-28T01:48:14.137Z,3.20
2022-11-28T01:51:01.444Z,3.30
2022-11-28T01:53:47.451Z,3.30
2022-11-28T01:56:38.347Z,3.30
2022-11-28T01:59:26.742Z,3.30
2022-11-28T02:02:20.182Z,3.40
2022-11-28T02:05:06.885Z,3.30
2022-11-28T02:07:52.678Z,3.10
2022-11-28T02:10:44.837Z,3.10
2022-11-28T02:13:42.064Z,3.20
2022-11-28T02:16:39.828Z,3.40
2022-11-28T02:19:39.695Z,3.60
2022-11-28T02:22:32.248Z,3.50
2022-11-28T02:25:30.387Z,3.70
2022-11-28T02:28:39.485Z,3.60
2022-11-28T02:31:40.506Z,3.60
2022-11-28T02:34:30.841Z,3.60
2022-11-28T02:37:19.683Z,3.70
2022-11-28T02:40:05.525Z,3.60
2022-11-28T02:42:51.617Z,3.60
2022-11-28T02:45:49.962Z,3.60
2022-11-28T02:48:54.416Z,3.60
2022-11-28T02:51:49.115Z,3.60
2022-11-28T02:54:35.427Z,3.50
2022-11-28T02:57:21.314Z,3.40
2022-11-28T03:00:25.023Z,3.40
2022-11-28T03:03:18.406Z,3.50
2022-11-28T03:06:17.811Z,3.50
2022-11-28T03:09:03.589Z,3.50
2022-11-28T03:11:58.748Z,3.30
2022-11-28T03:14:44.967Z,3.30
2022-11-28T03:17:54.221Z,3.20
2022-11-28T03:20:40.080Z,3.20
2022-11-28T03:23:44.904Z,3.30
2022-11-28T03:26:49.221Z,3.40
2022-11-28T03:29:38.544Z,3.50
2022-11-28T03:32:27.477Z,3.50
2022-11-28T03:35:16.636Z,3.50
2022-11-28T03:38:15.325Z,3.50
2022-11-28T03:41:07.043Z,3.50
2022-11-28T03:43:54.549Z,3.50
2022-11-28T03:46:43.637Z,3.40
2022-11-28T03:49:32.117Z,3.40
2022-11-28T03:52:25.385Z,3.30
2022-11-28T03:55:13.982Z,3.20
2022-11-28T03:58:06.059Z,3.10
2022-11-28T04:01:12.799Z,3.10
2022-11-28T04:04:04.844Z,3.10
2022-11-28T04:06:54.201Z,3.00
2022-11-28T04:09:43.771Z,3.00
2022-11-28T04:12:41.929Z,3.00
2022-11-28T04:15:40.152Z,3.10
2022-11-28T04:18:26.177Z,3.10
2022-11-28T04:21:16.038Z,3.20
2022-11-28T04:24:03.776Z,3.30
2022-11-28T04:26:54.640Z,3.30
2022-11-28T04:29:46.037Z,3.30
2022-11-28T04:32:33.489Z,3.30
2022-11-28T04:35:24.417Z,3.30
2022-11-28T04:38:11.738Z,3.20
2022-11-28T04:41:03.007Z,3.20
2022-11-28T04:43:52.169Z,3.20
2022-11-28T04:46:43.451Z,3.20
2022-11-28T04:49:29.553Z,3.20
2022-11-28T04:52:25.260Z,3.20
2022-11-28T04:55:22.997Z,3.30
2022-11-28T04:58:18.775Z,3.40
2022-11-28T05:01:06.493Z,3.30
2022-11-28T05:03:53.553Z,3.30
2022-11-28T05:06:39.882Z,3.30
2022-11-28T05:09:26.380Z,3.30
2022-11-28T05:12:12.726Z,3.40
2022-11-28T05:14:58.664Z,3.30
2022-11-28T05:17:46.678Z,3.10
2022-11-28T05:20:33.139Z,3.10
2022-11-28T05:23:19.026Z,3.20
2022-11-28T05:26:08.976Z,3.40
2022-11-28T05:28:54.842Z,3.30
2022-11-28T05:31:40.628Z,3.40
2022-11-28T05:34:26.749Z,3.40
2022-11-28T05:37:13.008Z,3.50
2022-11-28T05:39:58.781Z,3.50
2022-11-28T05:42:44.793Z,3.50
2022-11-28T05:45:30.928Z,3.60
2022-11-28T05:48:16.962Z,3.40
2022-11-28T05:51:06.445Z,3.50
2022-11-28T05:53:52.433Z,3.30
2022-11-28T05:56:42.256Z,3.40
2022-11-28T05:59:28.623Z,3.30
2022-11-28T06:02:14.785Z,3.20
2022-11-28T06:05:16.102Z,3.20
2022-11-28T06:08:06.832Z,3.20
2022-11-28T06:10:56.745Z,3.20
2022-11-28T06:13:43.576Z,3.20
2022-11-28T06:16:30.393Z,3.30
2022-11-28T06:19:16.431Z,3.20
2022-11-28T06:22:02.710Z,3.20
2022-11-28T06:24:48.601Z,3.30
2022-11-28T06:27:35.361Z,3.40
2022-11-28T06:30:21.878Z,3.50
2022-11-28T06:33:07.769Z,3.40
2022-11-28T06:36:04.151Z,3.50
2022-11-28T06:38:49.773Z,3.30
2022-11-28T06:41:35.935Z,3.30
2022-11-28T06:44:22.173Z,3.40
2022-11-28T06:47:07.849Z,3.40
2022-11-28T06:49:54.064Z,3.40
2022-11-28T06:52:40.165Z,3.50
2022-11-28T06:55:26.053Z,3.60
2022-11-28T06:58:12.506Z,3.50
2022-11-28T07:01:04.895Z,3.60
2022-11-28T07:03:51.789Z,3.60
2022-11-28T07:06:37.683Z,3.60
2022-11-28T07:09:23.771Z,3.50
2022-11-28T07:12:09.561Z,3.50
2022-11-28T07:14:55.854Z,3.50
2022-11-28T07:17:41.766Z,3.60
2022-11-28T07:20:27.707Z,3.70
2022-11-28T07:23:13.938Z,3.80
2022-11-28T07:26:01.083Z,3.90
2022-11-28T07:28:47.570Z,3.90
2022-11-28T07:31:33.807Z,4.00
2022-11-28T07:34:19.843Z,4.00
2022-11-28T07:37:06.021Z,4.10
2022-11-28T07:39:52.092Z,4.10
2022-11-28T07:42:38.156Z,4.10
2022-11-28T07:45:32.991Z,4.10
2022-11-28T07:48:30.188Z,4.10
2022-11-28T07:51:17.737Z,4.30
2022-11-28T07:54:04.533Z,4.20
2022-11-28T07:57:12.780Z,4.20
2022-11-28T07:59:56.228Z,4.10
2022-11-28T08:02:42.313Z,4.00
2022-11-28T08:05:28.125Z,4.00
2022-11-28T08:08:14.185Z,3.90
2022-11-28T08:11:01.375Z,4.00
2022-11-28T08:13:47.335Z,4.20
2022-11-28T08:16:33.414Z,4.30
2022-11-28T08:19:23.125Z,4.40
2022-11-28T08:22:10.903Z,4.50
2022-11-28T08:24:57.126Z,4.60
2022-11-28T08:27:42.869Z,4.50
2022-11-28T08:30:29.173Z,4.60
2022-11-28T08:33:15.189Z,4.70
2022-11-28T08:36:03.299Z,4.70
2022-11-28T08:39:03.545Z,4.70
2022-11-28T08:41:59.602Z,4.70
2022-11-28T08:44:45.913Z,4.60
2022-11-28T08:47:31.696Z,4.40
2022-11-28T08:50:17.683Z,4.50
2022-11-28T08:53:07.753Z,4.40
2022-11-28T08:55:54.156Z,4.40
2022-11-28T08:58:40.096Z,4.40
2022-11-28T09:01:26.778Z,4.60
2022-11-28T09:04:12.634Z,4.60
2022-11-28T09:06:58.672Z,4.50
2022-11-28T09:09:45.077Z,4.50
2022-11-28T09:12:31.250Z,4.60
2022-11-28T09:15:19.041Z,4.80
2022-11-28T09:18:05.490Z,4.80
2022-11-28T09:20:56.656Z,5.00
2022-11-28T09:23:43.677Z,5.00
2022-11-28T09:26:30.081Z,5.00
2022-11-28T09:29:16.155Z,5.10
2022-11-28T09:32:02.123Z,5.30
2022-11-28T09:34:48.181Z,5.40
2022-11-28T09:37:34.281Z,5.40
2022-11-28T09:40:24.354Z,5.50
2022-11-28T09:43:16.713Z,5.50
2022-11-28T09:46:04.160Z,5.50
2022-11-28T09:48:52.063Z,5.60
2022-11-28T09:51:51.036Z,5.70
2022-11-28T09:54:55.789Z,5.80
2022-11-28T09:57:45.392Z,6.00
2022-11-28T10:00:34.250Z,6.00
2022-11-28T10:03:26.343Z,6.00
2022-11-28T10:06:12.676Z,5.80
2022-11-28T10:09:16.453Z,5.80
2022-11-28T10:12:02.475Z,6.00
2022-11-28T10:15:01.309Z,6.20
2022-11-28T10:17:47.163Z,6.20
2022-11-28T10:20:38.204Z,6.30
2022-11-28T10:23:26.880Z,6.50
2022-11-28T10:26:36.142Z,6.50
2022-11-28T10:29:21.860Z,6.50
2022-11-28T10:32:11.869Z,6.50
2022-11-28T10:35:04.496Z,6.40
2022-11-28T10:37:51.047Z,6.50
2022-11-28T10:40:43.105Z,6.50
2022-11-28T10:43:34.504Z,6.50
2022-11-28T10:46:26.488Z,6.50
2022-11-28T10:49:12.643Z,6.50
2022-11-28T10:51:58.555Z,6.40
2022-11-28T10:54:44.564Z,6.60
2022-11-28T10:57:36.364Z,6.80
2022-11-28T11:00:22.222Z,6.90
2022-11-28T11:03:11.807Z,7.10
2022-11-28T11:05:57.823Z,7.20
2022-11-28T11:08:45.505Z,7.20
2022-11-28T11:11:34.463Z,7.20
2022-11-28T11:14:33.176Z,7.20
2022-11-28T11:17:34.250Z,7.20
2022-11-28T11:20:30.946Z,7.20
2022-11-28T11:23:18.216Z,7.30
2022-11-28T11:26:05.543Z,7.30
2022-11-28T11:28:52.213Z,7.30
2022-11-28T11:31:42.885Z,7.30
2022-11-28T11:34:31.196Z,7.20
2022-11-28T11:37:34.519Z,7.30
2022-11-28T11:40:20.662Z,7.30
2022-11-28T11:43:21.013Z,7.40
2022-11-28T11:46:10.230Z,7.40
2022-11-28T11:48:56.256Z,7.60
2022-11-28T11:51:42.289Z,7.60
2022-11-28T11:54:28.717Z,7.70
2022-11-28T11:57:32.631Z,7.80
2022-11-28T12:00:21.419Z,7.90
2022-11-28T12:03:24.028Z,8.10
2022-11-28T12:06:20.713Z,8.20
2022-11-28T12:09:25.307Z,8.30
2022-11-28T12:12:13.899Z,8.40
2022-11-28T12:14:59.704Z,8.40
2022-11-28T12:17:51.481Z,8.50
2022-11-28T12:20:48.418Z,8.50
2022-11-28T12:23:47.847Z,8.50
2022-11-28T12:26:41.075Z,8.40
2022-11-28T12:29:45.910Z,8.40
2022-11-28T12:32:50.931Z,8.40
2022-11-28T12:35:39.867Z,8.40
2022-11-28T12:38:44.501Z,8.30
2022-11-28T12:41:32.652Z,8.30
2022-11-28T12:44:31.399Z,8.30
2022-11-28T12:47:17.140Z,8.30
2022-11-28T12:50:15.645Z,8.30
2022-11-28T12:53:28.177Z,8.30
2022-11-28T12:56:23.005Z,8.20
2022-11-28T12:59:19.111Z,8.30
2022-11-28T13:02:26.851Z,8.30
2022-11-28T13:05:30.723Z,8.30
2022-11-28T13:08:17.001Z,8.20
2022-11-28T13:11:09.198Z,8.20
2022-11-28T13:13:58.390Z,8.20
2022-11-28T13:16:49.234Z,8.20
2022-11-28T13:19:44.734Z,8.10
2022-11-28T13:22:50.133Z,8.10
2022-11-28T13:25:41.880Z,8.10
2022-11-28T13:28:33.295Z,8.00
2022-11-28T13:31:33.117Z,8.00
2022-11-28T13:34:20.285Z,8.00
2022-11-28T13:40:27.098Z,8.00
2022-11-28T13:43:16.735Z,8.00
2022-11-28T13:46:03.425Z,8.10
2022-11-28T13:49:25.144Z,8.00
2022-11-28T13:52:16.087Z,7.90
2022-11-28T13:55:02.635Z,7.90
2022-11-28T13:57:50.059Z,7.80
2022-11-28T14:00:36.721Z,7.80
2022-11-28T14:03:23.045Z,7.80
2022-11-28T14:06:09.506Z,7.80
2022-11-28T14:09:07.197Z,7.80
2022-11-28T14:12:12.442Z,7.90
2022-11-28T14:15:24.889Z,7.90
2022-11-28T14:18:55.692Z,7.80
2022-11-28T14:21:55.082Z,7.90
2022-11-28T14:24:47.383Z,7.90
2022-11-28T14:27:35.109Z,7.90
2022-11-28T14:30:23.533Z,7.80
2022-11-28T14:33:22.613Z,7.90
2022-11-28T14:36:29.620Z,7.80
2022-11-28T14:39:16.573Z,7.80
2022-11-28T14:42:03.184Z,7.80
2022-11-28T14:44:54.667Z,7.80
2022-11-28T14:48:02.636Z,7.80
2022-11-28T14:50:51.660Z,7.80
2022-11-28T14:53:45.326Z,7.70
2022-11-28T14:56:33.929Z,7.80
2022-11-28T14:59:22.350Z,7.80
2022-11-28T15:02:11.494Z,7.70
2022-11-28T15:05:00.514Z,7.70
2022-11-28T15:07:46.649Z,7.70
2022-11-28T15:10:33.573Z,7.70
2022-11-28T15:13:19.450Z,7.70
2022-11-28T15:16:10.050Z,7.70
2022-11-28T15:18:59.430Z,7.60
2022-11-28T15:21:48.285Z,7.60
2022-11-28T15:24:35.151Z,7.60
2022-11-28T15:27:25.337Z,7.60
2022-11-28T15:30:15.732Z,7.60
2022-11-28T15:33:02.088Z,7.60
2022-11-28T15:35:54.336Z,7.50
2022-11-28T15:38:42.013Z,7.50
2022-11-28T15:41:28.195Z,7.50
2022-11-28T15:44:15.728Z,7.50
2022-11-28T15:47:02.012Z,7.50
2022-11-28T15:50:06.921Z,7.40
2022-11-28T15:53:00.391Z,7.40
2022-11-28T15:56:06.198Z,7.40
2022-11-28T15:58:52.717Z,7.40
2022-11-28T16:01:38.973Z,7.40
2022-11-28T16:04:24.930Z,7.40
2022-11-28T16:07:13.689Z,7.40
2022-11-28T16:10:03.623Z,7.40
2022-11-28T16:12:51.499Z,7.30
2022-11-28T16:15:38.524Z,7.30
2022-11-28T16:18:26.363Z,7.30
2022-11-28T16:21:14.225Z,7.30
2022-11-28T16:24:01.776Z,7.30
2022-11-28T16:26:56.677Z,7.40
2022-11-28T16:29:45.560Z,7.40
2022-11-28T16:32:38.994Z,7.40
2022-11-28T16:35:30.992Z,7.40
2022-11-28T16:38:16.917Z,7.30
2022-11-28T16:41:03.480Z,7.30
2022-11-28T16:43:53.073Z,7.30
2022-11-28T16:46:40.558Z,7.20
2022-11-28T16:49:40.684Z,7.30
2022-11-28T16:52:27.385Z,7.10
2022-11-28T16:55:28.775Z,7.20
2022-11-28T16:58:20.228Z,7.20
2022-11-28T17:01:08.544Z,7.10
2022-11-28T17:03:58.045Z,7.10
2022-11-28T17:06:43.933Z,7.10
2022-11-28T17:09:30.520Z,7.10
2022-11-28T17:12:16.616Z,7.00
2022-11-28T17:15:02.767Z,7.10
2022-11-28T17:17:48.911Z,7.00
2022-11-28T17:20:35.092Z,7.10
2022-11-28T17:23:27.021Z,7.00
2022-11-28T17:26:13.068Z,7.00
2022-11-28T17:28:59.120Z,7.00
2022-11-28T17:31:46.833Z,7.10
2022-11-28T17:34:33.836Z,7.00
2022-11-28T17:37:19.680Z,7.00
2022-11-28T17:40:24.784Z,7.10
2022-11-28T17:43:17.669Z,7.10
2022-11-28T17:46:03.702Z,7.10
2022-11-28T17:48:49.557Z,7.00
2022-11-28T17:51:35.760Z,7.00
2022-11-28T17:54:22.373Z,7.00
2022-11-28T17:57:09.543Z,7.10
2022-11-28T17:59:55.635Z,7.10
2022-11-28T18:02:42.423Z,7.10
2022-11-28T18:05:28.787Z,7.00
2022-11-28T18:08:21.770Z,7.00
2022-11-28T18:11:10.226Z,7.00
2022-11-28T18:13:58.319Z,7.00
2022-11-28T18:16:44.566Z,7.00
2022-11-28T18:19:31.606Z,7.10
2022-11-28T18:22:17.635Z,7.00
2022-11-28T18:25:03.812Z,7.00
2022-11-28T18:27:49.785Z,6.90
2022-11-28T18:30:36.562Z,6.90
2022-11-28T18:33:23.040Z,6.90
2022-11-28T18:36:10.316Z,7.00
2022-11-28T18:39:00.836Z,7.00
2022-11-28T18:41:46.813Z,7.00
2022-11-28T18:44:34.119Z,6.90
2022-11-28T18:47:20.787Z,6.70
2022-11-28T18:50:08.023Z,6.70
2022-11-28T18:52:54.820Z,6.80
2022-11-28T18:55:40.718Z,6.80
2022-11-28T18:58:27.253Z,6.90
2022-11-28T19:01:20.882Z,7.00
2022-11-28T19:04:08.061Z,7.00
2022-11-28T19:06:54.773Z,7.00
2022-11-28T19:09:41.069Z,7.10
2022-11-28T19:12:27.819Z,7.00
2022-11-28T19:15:13.649Z,7.10
2022-11-28T19:17:59.758Z,7.00
2022-11-28T19:20:46.626Z,7.00
2022-11-28T19:23:32.980Z,7.00
2022-11-28T19:26:19.815Z,7.00
2022-11-28T19:29:06.759Z,7.00
2022-11-28T19:31:52.722Z,7.10
2022-11-28T19:34:39.601Z,7.10
2022-11-28T19:37:25.628Z,7.00
2022-11-28T19:40:11.945Z,7.00
2022-11-28T19:42:57.797Z,7.10
2022-11-28T19:45:43.868Z,7.10
2022-11-28T19:48:30.705Z,7.10
2022-11-28T19:51:17.227Z,7.10
2022-11-28T19:54:04.181Z,7.00
2022-11-28T19:56:52.282Z,7.00
2022-11-28T19:59:38.302Z,7.00
2022-11-28T20:02:24.510Z,7.10
2022-11-28T20:05:10.874Z,7.10
2022-11-28T20:07:58.676Z,7.10
2022-11-28T20:10:44.700Z,7.10
2022-11-28T20:13:33.049Z,7.10
2022-11-28T20:16:19.748Z,7.00
2022-11-28T20:19:06.704Z,7.00
2022-11-28T20:21:57.779Z,7.00
2022-11-28T20:24:43.929Z,7.00
2022-11-28T20:27:29.967Z,6.90
2022-11-28T20:30:16.293Z,6.90
2022-11-28T20:33:02.109Z,6.80
2022-11-28T20:35:48.373Z,6.80
2022-11-28T20:38:35.797Z,6.70
2022-11-28T20:41:22.592Z,6.70
2022-11-28T20:44:09.399Z,6.60
2022-11-28T20:46:55.173Z,6.60
2022-11-28T20:49:41.680Z,6.50
2022-11-28T20:52:27.968Z,6.50
2022-11-28T20:55:14.141Z,6.50
2022-11-28T20:57:59.935Z,6.50
2022-11-28T21:00:46.301Z,6.50
2022-11-28T21:03:32.586Z,6.60
2022-11-28T21:06:19.460Z,6.60
2022-11-28T21:09:05.942Z,6.60
2022-11-28T21:11:58.150Z,6.60
2022-11-28T21:14:45.220Z,6.70
2022-11-28T21:17:31.103Z,6.70
2022-11-28T21:20:17.198Z,6.70
2022-11-28T21:23:03.223Z,6.70
2022-11-28T21:25:49.159Z,6.70
2022-11-28T21:28:36.331Z,6.70
2022-11-28T21:31:23.765Z,6.70
2022-11-28T21:34:13.009Z,6.70
2022-11-28T21:36:59.026Z,6.70
2022-11-28T21:39:45.187Z,6.80
2022-11-28T21:42:31.723Z,6.70
2022-11-28T21:45:18.476Z,6.80
2022-11-28T21:48:04.696Z,6.80
2022-11-28T21:50:51.400Z,6.80
2022-11-28T21:53:37.397Z,6.70
2022-11-28T21:56:23.383Z,6.70
2022-11-28T21:59:09.524Z,6.70
2022-11-28T22:01:55.706Z,6.70
2022-11-28T22:04:43.187Z,6.80
2022-11-28T22:07:30.733Z,6.80
2022-11-28T22:10:16.679Z,6.80
2022-11-28T22:13:02.819Z,6.80
2022-11-28T22:15:48.867Z,6.90
2022-11-28T22:18:34.755Z,6.90
2022-11-28T22:24:27.452Z,6.90
2022-11-28T22:27:13.868Z,6.80
2022-11-28T22:29:59.904Z,6.80
2022-11-28T22:32:46.115Z,6.70
2022-11-28T22:35:32.351Z,6.70
2022-11-28T22:38:18.465Z,6.70
2022-11-28T22:41:11.498Z,6.70
2022-11-28T22:43:59.537Z,6.70
2022-11-28T22:46:46.691Z,6.70
2022-11-28T22:49:32.917Z,6.70
2022-11-28T22:52:19.233Z,6.80
2022-11-28T22:55:05.418Z,6.80
2022-11-28T22:57:51.400Z,6.80
2022-11-28T23:00:37.555Z,6.80
2022-11-28T23:03:23.360Z,6.80
2022-11-28T23:06:13.567Z,6.80
2022-11-28T23:09:00.288Z,6.80
2022-11-28T23:11:47.253Z,6.80
2022-11-28T23:14:33.490Z,6.70
2022-11-28T23:17:19.580Z,6.70
2022-11-28T23:20:05.693Z,6.60
2022-11-28T23:22:51.614Z,6.70
2022-11-28T23:25:37.416Z,6.70
2022-11-28T23:28:23.377Z,6.70
2022-11-28T23:31:13.902Z,6.70
2022-11-28T23:34:00.820Z,6.70
2022-11-28T23:36:47.639Z,6.70
2022-11-28T23:39:33.400Z,6.70
2022-11-28T23:42:23.086Z,6.70
2022-11-28T23:45:09.465Z,6.70
2022-11-28T23:47:55.193Z,6.70
2022-11-28T23:50:41.293Z,6.70
2022-11-28T23:53:27.377Z,6.70
2022-11-28T23:56:18.010Z,6.70
2022-11-28T23:59:05.463Z,6.70
